sensor_id;sensor_type;location;lat;lon;timestamp;pressure;altitude;pressure_sealevel;temperature;humidity
58979;BME280;44763;50.464;30.612;2023-07-13T05:01:10;99974.89;;;27.56;44.60
58979;BME280;44763;50.464;30.612;2023-07-13T05:03:12;99976.24;;;27.36;44.22
58979;BME280;44763;50.464;30.612;2023-07-13T05:05:14;99963.50;;;26.98;45.02
58979;BME280;44763;50.464;30.612;2023-07-13T05:07:16;99977.11;;;26.75;46.03
58979;BME280;44763;50.464;30.612;2023-07-13T05:09:17;99978.52;;;26.53;47.36
58979;BME280;44763;50.464;30.612;2023-07-13T05:11:19;99976.83;;;26.24;47.10
58979;BME280;44763;50.464;30.612;2023-07-13T05:13:22;99982.64;;;25.92;47.92
58979;BME280;44763;50.464;30.612;2023-07-13T05:15:27;99980.89;;;25.59;49.12
58979;BME280;44763;50.464;30.612;2023-07-13T05:17:28;99981.38;;;25.33;49.96
58979;BME280;44763;50.464;30.612;2023-07-13T05:19:31;99981.83;;;25.15;50.49
58979;BME280;44763;50.464;30.612;2023-07-13T05:21:33;99979.90;;;25.00;51.05
58979;BME280;44763;50.464;30.612;2023-07-13T05:23:35;99980.38;;;24.89;50.96
58979;BME280;44763;50.464;30.612;2023-07-13T05:25:37;99984.62;;;24.77;51.29
58979;BME280;44763;50.464;30.612;2023-07-13T05:27:39;99982.52;;;24.65;51.54
58979;BME280;44763;50.464;30.612;2023-07-13T05:29:41;99980.48;;;24.53;52.09
58979;BME280;44763;50.464;30.612;2023-07-13T05:31:42;99975.45;;;24.43;52.23
58979;BME280;44763;50.464;30.612;2023-07-13T05:33:44;99972.69;;;24.31;52.29
58979;BME280;44763;50.464;30.612;2023-07-13T05:35:45;99969.45;;;24.19;52.01
58979;BME280;44763;50.464;30.612;2023-07-13T05:37:47;99974.34;;;24.24;52.89
58979;BME280;44763;50.464;30.612;2023-07-13T05:39:49;99972.38;;;24.29;52.84
58979;BME280;44763;50.464;30.612;2023-07-13T05:41:51;99973.18;;;24.41;53.02
58979;BME280;44763;50.464;30.612;2023-07-13T05:43:53;99974.48;;;24.59;52.64
58979;BME280;44763;50.464;30.612;2023-07-13T05:45:56;99971.91;;;24.73;52.35
58979;BME280;44763;50.464;30.612;2023-07-13T05:47:58;99969.81;;;24.88;51.82
58979;BME280;44763;50.464;30.612;2023-07-13T05:49:59;99969.12;;;24.99;51.02
58979;BME280;44763;50.464;30.612;2023-07-13T05:52:04;99967.27;;;25.07;51.19
58979;BME280;44763;50.464;30.612;2023-07-13T05:54:06;99970.66;;;25.14;51.30
58979;BME280;44763;50.464;30.612;2023-07-13T05:56:07;99972.63;;;25.22;51.47
58979;BME280;44763;50.464;30.612;2023-07-13T05:58:10;99972.59;;;25.26;50.73
58979;BME280;44763;50.464;30.612;2023-07-13T06:00:13;99970.80;;;25.26;50.80
58979;BME280;44763;50.464;30.612;2023-07-13T06:02:14;99977.27;;;25.21;50.82
58979;BME280;44763;50.464;30.612;2023-07-13T06:04:16;99975.58;;;25.21;51.24
58979;BME280;44763;50.464;30.612;2023-07-13T06:06:18;99972.63;;;25.27;50.85
58979;BME280;44763;50.464;30.612;2023-07-13T06:08:19;99973.77;;;25.35;51.14
58979;BME280;44763;50.464;30.612;2023-07-13T06:10:21;99972.17;;;25.43;51.01
58979;BME280;44763;50.464;30.612;2023-07-13T06:12:23;99967.27;;;25.49;50.79
58979;BME280;44763;50.464;30.612;2023-07-13T06:14:24;99966.86;;;25.55;50.85
58979;BME280;44763;50.464;30.612;2023-07-13T06:16:26;99962.73;;;25.64;50.79
58979;BME280;44763;50.464;30.612;2023-07-13T06:18:28;99958.27;;;25.70;50.22
58979;BME280;44763;50.464;30.612;2023-07-13T06:20:30;99959.63;;;25.76;50.68
58979;BME280;44763;50.464;30.612;2023-07-13T06:22:31;99958.36;;;25.88;50.77
58979;BME280;44763;50.464;30.612;2023-07-13T06:24:33;99957.58;;;26.05;50.11
58979;BME280;44763;50.464;30.612;2023-07-13T06:26:35;99958.77;;;26.24;49.72
58979;BME280;44763;50.464;30.612;2023-07-13T06:28:37;99964.80;;;26.42;48.39
58979;BME280;44763;50.464;30.612;2023-07-13T06:30:39;99964.23;;;26.54;47.49
58979;BME280;44763;50.464;30.612;2023-07-13T06:32:41;99961.02;;;26.63;47.72
58979;BME280;44763;50.464;30.612;2023-07-13T06:34:42;99960.86;;;26.79;46.65
58979;BME280;44763;50.464;30.612;2023-07-13T06:36:44;99962.39;;;26.88;46.08
58979;BME280;44763;50.464;30.612;2023-07-13T06:38:46;99960.39;;;26.97;46.11
58979;BME280;44763;50.464;30.612;2023-07-13T06:40:47;99959.42;;;27.12;45.84
58979;BME280;44763;50.464;30.612;2023-07-13T06:42:49;99961.17;;;27.36;45.33
58979;BME280;44763;50.464;30.612;2023-07-13T06:44:51;99958.76;;;27.73;45.23
58979;BME280;44763;50.464;30.612;2023-07-13T06:46:52;99950.05;;;28.01;44.11
58979;BME280;44763;50.464;30.612;2023-07-13T06:48:55;99959.88;;;28.32;43.82
58979;BME280;44763;50.464;30.612;2023-07-13T06:50:57;99959.63;;;28.47;43.49
58979;BME280;44763;50.464;30.612;2023-07-13T06:52:59;99957.37;;;28.45;42.64
58979;BME280;44763;50.464;30.612;2023-07-13T06:55:01;99961.04;;;28.21;43.25
58979;BME280;44763;50.464;30.612;2023-07-13T06:57:02;99963.73;;;27.94;43.77
58979;BME280;44763;50.464;30.612;2023-07-13T06:59:04;99963.27;;;27.65;44.20
58979;BME280;44763;50.464;30.612;2023-07-13T07:01:06;99953.78;;;27.29;44.54
58979;BME280;44763;50.464;30.612;2023-07-13T07:03:09;99968.77;;;27.09;44.82
58979;BME280;44763;50.464;30.612;2023-07-13T07:05:11;99972.36;;;26.90;46.02
58979;BME280;44763;50.464;30.612;2023-07-13T07:07:12;99973.34;;;26.76;46.65
58979;BME280;44763;50.464;30.612;2023-07-13T07:09:14;99970.95;;;26.64;46.83
58979;BME280;44763;50.464;30.612;2023-07-13T07:11:20;99968.25;;;26.52;47.57
58979;BME280;44763;50.464;30.612;2023-07-13T07:13:23;99972.23;;;26.44;47.91
58979;BME280;44763;50.464;30.612;2023-07-13T07:15:26;99970.23;;;26.44;48.53
58979;BME280;44763;50.464;30.612;2023-07-13T07:17:28;99973.80;;;26.51;49.27
58979;BME280;44763;50.464;30.612;2023-07-13T07:19:30;99970.54;;;26.62;48.69
58979;BME280;44763;50.464;30.612;2023-07-13T07:21:32;99968.47;;;26.81;48.05
58979;BME280;44763;50.464;30.612;2023-07-13T07:23:34;99964.79;;;27.01;47.75
58979;BME280;44763;50.464;30.612;2023-07-13T07:25:35;99963.91;;;27.22;47.26
58979;BME280;44763;50.464;30.612;2023-07-13T07:27:43;99960.34;;;27.35;46.60
58979;BME280;44763;50.464;30.612;2023-07-13T07:29:48;99962.01;;;27.36;46.31
58979;BME280;44763;50.464;30.612;2023-07-13T07:32:09;99961.73;;;27.36;46.85
58979;BME280;44763;50.464;30.612;2023-07-13T07:34:31;99961.11;;;27.47;47.11
58979;BME280;44763;50.464;30.612;2023-07-13T07:36:34;99959.14;;;27.56;46.75
58979;BME280;44763;50.464;30.612;2023-07-13T07:38:40;99958.39;;;27.64;46.55
58979;BME280;44763;50.464;30.612;2023-07-13T07:40:42;99960.70;;;27.72;46.72
58979;BME280;44763;50.464;30.612;2023-07-13T07:42:47;99963.18;;;27.80;46.86
58979;BME280;44763;50.464;30.612;2023-07-13T07:44:49;99967.04;;;27.89;46.15
58979;BME280;44763;50.464;30.612;2023-07-13T07:46:51;99960.87;;;27.97;45.77
58979;BME280;44763;50.464;30.612;2023-07-13T07:48:53;99966.30;;;28.05;45.66
58979;BME280;44763;50.464;30.612;2023-07-13T07:50:54;99970.58;;;28.12;45.74
58979;BME280;44763;50.464;30.612;2023-07-13T07:52:56;99972.31;;;28.18;45.80
58979;BME280;44763;50.464;30.612;2023-07-13T07:54:58;99977.67;;;28.22;45.26
58979;BME280;44763;50.464;30.612;2023-07-13T07:57:03;99979.17;;;28.17;44.84
58979;BME280;44763;50.464;30.612;2023-07-13T07:59:08;99975.14;;;28.04;45.01
58979;BME280;44763;50.464;30.612;2023-07-13T08:01:13;99976.68;;;27.88;45.40
58979;BME280;44763;50.464;30.612;2023-07-13T08:03:17;99967.63;;;27.67;45.76
58979;BME280;44763;50.464;30.612;2023-07-13T08:05:22;99973.38;;;27.62;46.18
58979;BME280;44763;50.464;30.612;2023-07-13T08:07:43;99966.49;;;27.50;46.42
58979;BME280;44763;50.464;30.612;2023-07-13T08:09:45;99963.34;;;27.45;46.61
58979;BME280;44763;50.464;30.612;2023-07-13T08:11:48;99959.17;;;27.45;46.37
58979;BME280;44763;50.464;30.612;2023-07-13T08:13:53;99956.76;;;27.43;46.87
58979;BME280;44763;50.464;30.612;2023-07-13T08:15:56;99956.77;;;27.40;46.84
58979;BME280;44763;50.464;30.612;2023-07-13T08:18:00;99959.12;;;27.45;46.99
58979;BME280;44763;50.464;30.612;2023-07-13T08:20:02;99958.37;;;27.49;47.42
58979;BME280;44763;50.464;30.612;2023-07-13T08:22:04;99963.21;;;27.59;47.07
58979;BME280;44763;50.464;30.612;2023-07-13T08:24:06;99967.77;;;27.78;47.01
58979;BME280;44763;50.464;30.612;2023-07-13T08:26:09;99967.69;;;27.96;46.51
58979;BME280;44763;50.464;30.612;2023-07-13T08:28:11;99970.17;;;28.03;45.56
58979;BME280;44763;50.464;30.612;2023-07-13T08:30:12;99967.09;;;28.04;45.59
58979;BME280;44763;50.464;30.612;2023-07-13T08:32:14;99966.30;;;27.96;45.57
58979;BME280;44763;50.464;30.612;2023-07-13T08:34:16;99961.76;;;27.82;46.07
58979;BME280;44763;50.464;30.612;2023-07-13T08:36:21;99962.84;;;27.70;46.44
58979;BME280;44763;50.464;30.612;2023-07-13T08:38:23;99954.23;;;27.56;46.96
58979;BME280;44763;50.464;30.612;2023-07-13T08:40:26;99952.52;;;27.53;47.31
58979;BME280;44763;50.464;30.612;2023-07-13T08:42:36;99959.84;;;27.62;48.01
58979;BME280;44763;50.464;30.612;2023-07-13T08:47:14;99959.31;;;27.91;47.39
58979;BME280;44763;50.464;30.612;2023-07-13T08:49:22;99959.26;;;27.98;46.68
58979;BME280;44763;50.464;30.612;2023-07-13T08:51:48;99953.36;;;28.03;46.93
58979;BME280;44763;50.464;30.612;2023-07-13T08:53:58;99950.83;;;28.07;46.95
58979;BME280;44763;50.464;30.612;2023-07-13T08:56:02;99948.97;;;28.09;47.26
58979;BME280;44763;50.464;30.612;2023-07-13T08:58:15;99948.09;;;28.14;47.57
58979;BME280;44763;50.464;30.612;2023-07-13T09:00:17;99943.73;;;28.17;47.42
58979;BME280;44763;50.464;30.612;2023-07-13T09:02:42;99932.45;;;28.13;47.69
58979;BME280;44763;50.464;30.612;2023-07-13T09:05:01;99943.14;;;28.23;47.64
58979;BME280;44763;50.464;30.612;2023-07-13T09:12:23;99944.13;;;28.08;47.74
58979;BME280;44763;50.464;30.612;2023-07-13T09:14:43;99938.89;;;28.11;47.36
58979;BME280;44763;50.464;30.612;2023-07-13T09:16:48;99932.90;;;28.14;45.41
58979;BME280;44763;50.464;30.612;2023-07-13T09:18:52;99933.99;;;28.20;44.80
58979;BME280;44763;50.464;30.612;2023-07-13T09:21:02;99937.80;;;28.29;44.65
58979;BME280;44763;50.464;30.612;2023-07-13T09:23:14;99937.55;;;28.42;44.12
58979;BME280;44763;50.464;30.612;2023-07-13T09:25:31;99938.65;;;28.54;44.19
58979;BME280;44763;50.464;30.612;2023-07-13T09:27:39;99937.20;;;28.67;44.00
58979;BME280;44763;50.464;30.612;2023-07-13T09:29:47;99939.70;;;28.78;42.58
58979;BME280;44763;50.464;30.612;2023-07-13T09:31:54;99939.30;;;28.81;42.09
58979;BME280;44763;50.464;30.612;2023-07-13T09:34:02;99938.55;;;28.82;42.18
58979;BME280;44763;50.464;30.612;2023-07-13T09:36:32;99941.22;;;28.86;42.41
58979;BME280;44763;50.464;30.612;2023-07-13T09:38:34;99942.35;;;28.85;42.40
58979;BME280;44763;50.464;30.612;2023-07-13T09:43:01;99937.48;;;28.81;43.00
58979;BME280;44763;50.464;30.612;2023-07-13T09:45:05;99940.13;;;28.81;42.81
58979;BME280;44763;50.464;30.612;2023-07-13T09:47:20;99933.77;;;28.75;42.97
58979;BME280;44763;50.464;30.612;2023-07-13T09:49:43;99933.90;;;28.67;43.38
58979;BME280;44763;50.464;30.612;2023-07-13T09:51:47;99933.13;;;28.58;43.65
58979;BME280;44763;50.464;30.612;2023-07-13T09:53:49;99919.13;;;28.46;43.79
58979;BME280;44763;50.464;30.612;2023-07-13T09:55:51;99923.38;;;28.45;44.01
58979;BME280;44763;50.464;30.612;2023-07-13T09:57:54;99928.83;;;28.48;44.20
58979;BME280;44763;50.464;30.612;2023-07-13T09:59:56;99930.39;;;28.43;44.37
58979;BME280;44763;50.464;30.612;2023-07-13T10:02:00;99925.60;;;28.38;44.57
58979;BME280;44763;50.464;30.612;2023-07-13T10:04:10;99920.86;;;28.35;44.64
58979;BME280;44763;50.464;30.612;2023-07-13T10:06:18;99918.27;;;28.32;44.70
58979;BME280;44763;50.464;30.612;2023-07-13T10:08:26;99919.37;;;28.33;44.78
58979;BME280;44763;50.464;30.612;2023-07-13T10:10:29;99922.23;;;28.34;44.78
58979;BME280;44763;50.464;30.612;2023-07-13T10:12:36;99916.65;;;28.37;44.71
58979;BME280;44763;50.464;30.612;2023-07-13T10:14:38;99915.46;;;28.43;44.03
58979;BME280;44763;50.464;30.612;2023-07-13T10:16:43;99912.16;;;28.46;44.40
58979;BME280;44763;50.464;30.612;2023-07-13T10:18:56;99913.23;;;28.49;44.49
58979;BME280;44763;50.464;30.612;2023-07-13T10:21:34;99911.42;;;28.54;44.12
58979;BME280;44763;50.464;30.612;2023-07-13T10:23:38;99910.77;;;28.60;43.26
58979;BME280;44763;50.464;30.612;2023-07-13T10:25:43;99911.26;;;28.62;43.13
58979;BME280;44763;50.464;30.612;2023-07-13T10:27:47;99908.39;;;28.67;43.12
58979;BME280;44763;50.464;30.612;2023-07-13T10:29:54;99903.36;;;28.70;42.55
58979;BME280;44763;50.464;30.612;2023-07-13T10:31:59;99895.10;;;28.70;42.12
58979;BME280;44763;50.464;30.612;2023-07-13T10:34:01;99895.65;;;28.68;42.03
58979;BME280;44763;50.464;30.612;2023-07-13T10:38:30;99886.64;;;28.58;42.77
58979;BME280;44763;50.464;30.612;2023-07-13T10:40:37;99877.45;;;28.52;43.09
58979;BME280;44763;50.464;30.612;2023-07-13T10:42:42;99868.20;;;28.47;43.18
58979;BME280;44763;50.464;30.612;2023-07-13T10:44:45;99867.10;;;28.46;43.49
58979;BME280;44763;50.464;30.612;2023-07-13T10:46:47;99863.64;;;28.46;43.77
58979;BME280;44763;50.464;30.612;2023-07-13T10:48:53;99847.48;;;28.43;43.87
58979;BME280;44763;50.464;30.612;2023-07-13T10:50:57;99852.47;;;28.56;43.77
58979;BME280;44763;50.464;30.612;2023-07-13T10:53:03;99846.30;;;28.64;43.98
58979;BME280;44763;50.464;30.612;2023-07-13T10:55:40;99840.08;;;28.79;43.92
58979;BME280;44763;50.464;30.612;2023-07-13T10:57:43;99840.33;;;28.97;43.73
58979;BME280;44763;50.464;30.612;2023-07-13T11:00:12;99836.83;;;29.12;43.80
58979;BME280;44763;50.464;30.612;2023-07-13T11:02:26;99832.11;;;29.24;43.49
58979;BME280;44763;50.464;30.612;2023-07-13T11:04:40;99830.14;;;29.29;43.59
58979;BME280;44763;50.464;30.612;2023-07-13T11:06:43;99828.45;;;29.30;43.40
58979;BME280;44763;50.464;30.612;2023-07-13T11:10:56;99835.00;;;29.33;43.20
58979;BME280;44763;50.464;30.612;2023-07-13T11:12:58;99828.24;;;29.37;43.12
58979;BME280;44763;50.464;30.612;2023-07-13T11:15:04;99823.98;;;29.43;43.16
58979;BME280;44763;50.464;30.612;2023-07-13T11:19:39;99812.42;;;29.54;43.41
58979;BME280;44763;50.464;30.612;2023-07-13T11:28:48;99806.65;;;29.62;42.72
58979;BME280;44763;50.464;30.612;2023-07-13T11:35:22;99814.18;;;29.52;42.65
58979;BME280;44763;50.464;30.612;2023-07-13T11:37:25;99815.14;;;29.55;42.87
58979;BME280;44763;50.464;30.612;2023-07-13T11:39:31;99812.31;;;29.60;42.67
58979;BME280;44763;50.464;30.612;2023-07-13T11:41:43;99816.17;;;29.66;42.58
58979;BME280;44763;50.464;30.612;2023-07-13T11:43:45;99822.48;;;29.73;42.40
58979;BME280;44763;50.464;30.612;2023-07-13T11:45:51;99820.80;;;29.78;42.57
58979;BME280;44763;50.464;30.612;2023-07-13T11:47:52;99819.33;;;29.82;42.42
58979;BME280;44763;50.464;30.612;2023-07-13T11:49:55;99808.41;;;29.78;42.32
58979;BME280;44763;50.464;30.612;2023-07-13T11:51:58;99815.19;;;29.81;42.43
58979;BME280;44763;50.464;30.612;2023-07-13T11:54:53;99809.94;;;29.77;42.82
58979;BME280;44763;50.464;30.612;2023-07-13T11:56:30;99805.69;;;29.73;42.77
58979;BME280;44763;50.464;30.612;2023-07-13T11:58:33;99805.79;;;29.69;43.18
58979;BME280;44763;50.464;30.612;2023-07-13T12:00:37;99810.01;;;29.71;43.24
58979;BME280;44763;50.464;30.612;2023-07-13T12:02:42;99804.94;;;29.75;42.89
58979;BME280;44763;50.464;30.612;2023-07-13T12:04:45;99799.84;;;29.81;42.89
58979;BME280;44763;50.464;30.612;2023-07-13T12:06:54;99799.23;;;29.87;43.09
58979;BME280;44763;50.464;30.612;2023-07-13T12:09:00;99797.11;;;29.93;42.83
58979;BME280;44763;50.464;30.612;2023-07-13T12:11:16;99795.19;;;29.96;42.28
58979;BME280;44763;50.464;30.612;2023-07-13T12:13:18;99791.78;;;29.96;42.57
58979;BME280;44763;50.464;30.612;2023-07-13T12:15:23;99792.27;;;29.98;42.78
58979;BME280;44763;50.464;30.612;2023-07-13T12:17:28;99792.40;;;30.01;42.80
58979;BME280;44763;50.464;30.612;2023-07-13T12:19:31;99793.04;;;30.03;43.14
58979;BME280;44763;50.464;30.612;2023-07-13T12:21:41;99791.70;;;30.04;42.80
58979;BME280;44763;50.464;30.612;2023-07-13T12:23:45;99784.52;;;30.00;43.16
58979;BME280;44763;50.464;30.612;2023-07-13T12:25:50;99783.36;;;29.99;43.45
58979;BME280;44763;50.464;30.612;2023-07-13T12:27:53;99782.00;;;29.99;43.47
58979;BME280;44763;50.464;30.612;2023-07-13T12:30:02;99777.86;;;29.95;43.60
58979;BME280;44763;50.464;30.612;2023-07-13T12:32:08;99777.09;;;29.94;43.94
58979;BME280;44763;50.464;30.612;2023-07-13T12:34:13;99773.50;;;29.94;44.11
58979;BME280;44763;50.464;30.612;2023-07-13T12:36:17;99773.58;;;29.92;44.33
58979;BME280;44763;50.464;30.612;2023-07-13T12:38:19;99766.64;;;29.89;44.43
58979;BME280;44763;50.464;30.612;2023-07-13T12:40:29;99768.69;;;29.91;44.82
58979;BME280;44763;50.464;30.612;2023-07-13T12:42:38;99761.21;;;29.93;44.80
58979;BME280;44763;50.464;30.612;2023-07-13T12:44:41;99763.21;;;30.06;44.91
58979;BME280;44763;50.464;30.612;2023-07-13T12:46:52;99753.85;;;30.12;44.87
58979;BME280;44763;50.464;30.612;2023-07-13T12:48:57;99748.93;;;30.14;44.85
58979;BME280;44763;50.464;30.612;2023-07-13T12:51:22;99748.48;;;30.13;45.04
58979;BME280;44763;50.464;30.612;2023-07-13T12:53:28;99749.35;;;30.11;45.02
58979;BME280;44763;50.464;30.612;2023-07-13T12:55:41;99747.54;;;30.09;45.16
58979;BME280;44763;50.464;30.612;2023-07-13T12:57:49;99747.89;;;30.10;45.23
58979;BME280;44763;50.464;30.612;2023-07-13T12:59:55;99745.69;;;30.12;44.94
58979;BME280;44763;50.464;30.612;2023-07-13T13:01:59;99744.00;;;30.13;45.12
58979;BME280;44763;50.464;30.612;2023-07-13T13:04:02;99742.88;;;30.10;45.57
58979;BME280;44763;50.464;30.612;2023-07-13T13:08:23;99734.27;;;30.02;45.07
58979;BME280;44763;50.464;30.612;2023-07-13T13:10:25;99737.23;;;30.02;45.27
58979;BME280;44763;50.464;30.612;2023-07-13T13:12:27;99733.94;;;30.04;45.32
58979;BME280;44763;50.464;30.612;2023-07-13T13:14:29;99729.60;;;30.08;45.61
58979;BME280;44763;50.464;30.612;2023-07-13T13:16:32;99721.75;;;30.12;46.04
58979;BME280;44763;50.464;30.612;2023-07-13T13:18:35;99712.00;;;30.16;45.89
58979;BME280;44763;50.464;30.612;2023-07-13T13:20:37;99711.60;;;30.18;46.19
58979;BME280;44763;50.464;30.612;2023-07-13T13:22:39;99706.77;;;30.19;46.15
58979;BME280;44763;50.464;30.612;2023-07-13T13:24:41;99703.56;;;30.15;45.92
58979;BME280;44763;50.464;30.612;2023-07-13T13:26:43;99703.95;;;30.11;46.27
58979;BME280;44763;50.464;30.612;2023-07-13T13:28:45;99703.31;;;30.04;46.54
58979;BME280;44763;50.464;30.612;2023-07-13T13:30:50;99703.38;;;29.97;46.86
58979;BME280;44763;50.464;30.612;2023-07-13T13:32:52;99706.66;;;29.93;47.22
58979;BME280;44763;50.464;30.612;2023-07-13T13:34:54;99703.81;;;29.88;47.33
58979;BME280;44763;50.464;30.612;2023-07-13T13:36:56;99704.25;;;29.87;47.72
58979;BME280;44763;50.464;30.612;2023-07-13T13:39:01;99703.10;;;29.88;47.37
58979;BME280;44763;50.464;30.612;2023-07-13T13:41:03;99701.62;;;29.93;47.09
58979;BME280;44763;50.464;30.612;2023-07-13T13:43:22;99698.06;;;29.98;47.82
58979;BME280;44763;50.464;30.612;2023-07-13T13:45:27;99696.67;;;30.03;47.95
58979;BME280;44763;50.464;30.612;2023-07-13T13:47:31;99689.48;;;30.05;47.83
58979;BME280;44763;50.464;30.612;2023-07-13T13:49:34;99683.14;;;30.06;47.79
58979;BME280;44763;50.464;30.612;2023-07-13T13:51:37;99679.81;;;30.05;47.86
58979;BME280;44763;50.464;30.612;2023-07-13T13:53:39;99678.90;;;30.06;47.90
58979;BME280;44763;50.464;30.612;2023-07-13T13:55:41;99677.29;;;30.05;47.70
58979;BME280;44763;50.464;30.612;2023-07-13T13:57:43;99678.67;;;30.06;48.00
58979;BME280;44763;50.464;30.612;2023-07-13T13:59:44;99678.44;;;30.08;48.06
58979;BME280;44763;50.464;30.612;2023-07-13T14:01:47;99676.95;;;30.08;47.79
58979;BME280;44763;50.464;30.612;2023-07-13T14:03:50;99676.33;;;30.09;47.48
58979;BME280;44763;50.464;30.612;2023-07-13T14:05:56;99675.96;;;30.01;47.84
58979;BME280;44763;50.464;30.612;2023-07-13T14:07:58;99673.35;;;29.92;48.09
58979;BME280;44763;50.464;30.612;2023-07-13T14:10:01;99671.51;;;29.89;48.21
58979;BME280;44763;50.464;30.612;2023-07-13T14:12:04;99668.36;;;29.89;48.15
58979;BME280;44763;50.464;30.612;2023-07-13T14:14:12;99669.05;;;29.92;48.02
58979;BME280;44763;50.464;30.612;2023-07-13T14:16:17;99666.35;;;29.98;47.90
58979;BME280;44763;50.464;30.612;2023-07-13T14:18:20;99662.85;;;30.05;48.03
58979;BME280;44763;50.464;30.612;2023-07-13T14:20:22;99660.28;;;30.14;48.25
58979;BME280;44763;50.464;30.612;2023-07-13T14:22:26;99659.05;;;30.23;47.95
58979;BME280;44763;50.464;30.612;2023-07-13T14:24:28;99656.86;;;30.26;47.63
58979;BME280;44763;50.464;30.612;2023-07-13T14:26:31;99654.48;;;30.26;47.64
58979;BME280;44763;50.464;30.612;2023-07-13T14:28:34;99647.92;;;30.24;47.72
58979;BME280;44763;50.464;30.612;2023-07-13T14:30:36;99648.96;;;30.22;47.84
58979;BME280;44763;50.464;30.612;2023-07-13T14:32:38;99644.67;;;30.17;48.01
58979;BME280;44763;50.464;30.612;2023-07-13T14:34:39;99640.03;;;30.12;48.13
58979;BME280;44763;50.464;30.612;2023-07-13T14:36:46;99634.91;;;30.09;48.09
58979;BME280;44763;50.464;30.612;2023-07-13T14:38:49;99633.63;;;30.08;48.50
58979;BME280;44763;50.464;30.612;2023-07-13T14:40:50;99630.27;;;30.07;48.43
58979;BME280;44763;50.464;30.612;2023-07-13T14:42:52;99632.77;;;30.07;48.45
58979;BME280;44763;50.464;30.612;2023-07-13T14:44:54;99631.50;;;30.08;48.57
58979;BME280;44763;50.464;30.612;2023-07-13T14:47:03;99633.61;;;30.15;48.69
58979;BME280;44763;50.464;30.612;2023-07-13T14:49:30;99626.09;;;30.17;48.81
58979;BME280;44763;50.464;30.612;2023-07-13T14:51:33;99621.65;;;30.18;48.68
58979;BME280;44763;50.464;30.612;2023-07-13T14:53:35;99600.27;;;30.04;48.63
58979;BME280;44763;50.464;30.612;2023-07-13T14:55:39;99609.56;;;30.05;48.64
58979;BME280;44763;50.464;30.612;2023-07-13T14:57:41;99619.70;;;30.06;49.02
58979;BME280;44763;50.464;30.612;2023-07-13T14:59:43;99620.14;;;30.01;49.06
58979;BME280;44763;50.464;30.612;2023-07-13T15:01:48;99619.31;;;29.91;49.01
58979;BME280;44763;50.464;30.612;2023-07-13T15:03:52;99620.58;;;29.87;49.43
58979;BME280;44763;50.464;30.612;2023-07-13T15:05:54;99602.89;;;29.76;49.41
58979;BME280;44763;50.464;30.612;2023-07-13T15:08:01;99622.92;;;29.80;49.74
58979;BME280;44763;50.464;30.612;2023-07-13T15:10:33;99621.46;;;29.77;49.91
58979;BME280;44763;50.464;30.612;2023-07-13T15:12:34;99615.02;;;29.67;49.68
58979;BME280;44763;50.464;30.612;2023-07-13T15:14:36;99620.41;;;29.68;50.15
58979;BME280;44763;50.464;30.612;2023-07-13T15:16:38;99615.00;;;29.64;50.16
58979;BME280;44763;50.464;30.612;2023-07-13T15:18:39;99615.23;;;29.64;50.41
58979;BME280;44763;50.464;30.612;2023-07-13T15:20:43;99613.05;;;29.65;50.34
58979;BME280;44763;50.464;30.612;2023-07-13T15:22:46;99611.42;;;29.63;50.45
58979;BME280;44763;50.464;30.612;2023-07-13T15:24:50;99610.05;;;29.62;50.18
58979;BME280;44763;50.464;30.612;2023-07-13T15:26:51;99604.34;;;29.52;50.23
58979;BME280;44763;50.464;30.612;2023-07-13T15:28:53;99617.30;;;29.53;50.26
58979;BME280;44763;50.464;30.612;2023-07-13T15:30:55;99619.91;;;29.51;50.39
58979;BME280;44763;50.464;30.612;2023-07-13T15:32:58;99621.17;;;29.49;50.73
58979;BME280;44763;50.464;30.612;2023-07-13T15:35:04;99622.86;;;29.48;51.05
58979;BME280;44763;50.464;30.612;2023-07-13T15:37:14;99625.39;;;29.47;51.37
58979;BME280;44763;50.464;30.612;2023-07-13T15:39:17;99627.48;;;29.46;51.03
58979;BME280;44763;50.464;30.612;2023-07-13T15:41:26;99621.78;;;29.45;51.11
58979;BME280;44763;50.464;30.612;2023-07-13T15:43:32;99619.90;;;29.45;50.27
58979;BME280;44763;50.464;30.612;2023-07-13T15:45:34;99619.45;;;29.46;50.94
58979;BME280;44763;50.464;30.612;2023-07-13T15:47:36;99619.35;;;29.47;51.09
58979;BME280;44763;50.464;30.612;2023-07-13T15:49:40;99621.39;;;29.51;51.15
58979;BME280;44763;50.464;30.612;2023-07-13T15:51:42;99621.31;;;29.53;51.06
58979;BME280;44763;50.464;30.612;2023-07-13T15:53:44;99616.47;;;29.52;51.06
58979;BME280;44763;50.464;30.612;2023-07-13T15:55:46;99613.46;;;29.47;50.99
58979;BME280;44763;50.464;30.612;2023-07-13T15:57:50;99615.78;;;29.44;51.15
58979;BME280;44763;50.464;30.612;2023-07-13T15:59:52;99610.98;;;29.40;51.16
58979;BME280;44763;50.464;30.612;2023-07-13T16:01:54;99611.29;;;29.38;51.25
58979;BME280;44763;50.464;30.612;2023-07-13T16:03:56;99619.48;;;29.33;51.48
58979;BME280;44763;50.464;30.612;2023-07-13T16:05:57;99621.49;;;29.27;51.65
58979;BME280;44763;50.464;30.612;2023-07-13T16:08:00;99618.84;;;29.25;51.58
58979;BME280;44763;50.464;30.612;2023-07-13T16:10:03;99617.08;;;29.21;51.57
58979;BME280;44763;50.464;30.612;2023-07-13T16:12:10;99614.37;;;29.18;52.07
58979;BME280;44763;50.464;30.612;2023-07-13T16:14:14;99614.23;;;29.17;51.98
58979;BME280;44763;50.464;30.612;2023-07-13T16:16:16;99610.56;;;29.15;52.09
58979;BME280;44763;50.464;30.612;2023-07-13T16:18:18;99605.31;;;29.15;52.21
58979;BME280;44763;50.464;30.612;2023-07-13T16:20:20;99605.45;;;29.15;52.03
58979;BME280;44763;50.464;30.612;2023-07-13T16:22:22;99602.30;;;29.14;52.11
58979;BME280;44763;50.464;30.612;2023-07-13T16:24:24;99598.09;;;29.13;52.07